.
WxDataArchive / Data Records for 2014-10-21
2014-10-20 October 2014 2014-10-22

Data Records for Tuesday, 21 October 2014

Time	Temp	Chill	HIndex	Humid	Dewpt	 Wind 	HiWind	WindDir	Rain 	Barom
-----	----	-----	------	-----	-----	------	------	-------	-----	-----
00:00	52.2	52.2	52.2	77	45.2	0	1	315	0.00	29.895 
00:05	52.0	52.0	52.0	76	44.7	0	3	315	0.00	29.895 
00:10	52.0	52.0	52.0	76	44.7	1	3	315	0.00	29.895 
00:15	52.0	52.0	52.0	76	44.7	1	3	315	0.00	29.895 
00:20	51.9	51.9	51.9	76	44.6	1	4	315	0.00	29.895 
00:25	51.9	51.9	51.9	76	44.6	1	5	315	0.00	29.895 
00:30	51.9	51.9	51.9	76	44.6	0	5	315	0.00	29.895 
00:35	51.7	51.7	51.7	75	44.0	0	3	315	0.00	29.895 
00:40	51.7	51.7	51.7	75	44.0	1	3	315	0.00	29.895 
00:45	51.6	51.6	51.6	75	43.9	0	3	315	0.00	29.893 
00:50	51.6	51.6	51.6	75	43.9	0	1	315	0.00	29.893 
00:55	51.6	51.6	51.6	74	43.6	0	2	315	0.00	29.893 
01:00	51.4	51.4	51.4	74	43.4	1	3	315	0.00	29.893 
01:05	51.3	51.3	51.3	75	43.6	0	1	315	0.00	29.893 
01:10	51.3	51.3	51.3	75	43.6	0	1	315	0.00	29.893 
01:15	51.0	51.0	51.0	76	43.7	0	1	315	0.00	29.896 
01:20	50.7	50.7	50.7	76	43.4	0	3	315	0.00	29.896 
01:25	50.5	50.5	50.5	77	43.6	0	1	315	0.00	29.896 
01:30	50.2	50.2	50.2	77	43.3	0	1	315	0.00	29.898 
01:35	49.9	49.9	49.9	78	43.3	0	1	315	0.00	29.898 
01:40	49.8	49.8	49.8	78	43.2	0	1	315	0.00	29.898 
01:45	49.5	49.5	49.5	79	43.3	0	1	315	0.00	29.904 
01:50	49.4	49.4	49.4	80	43.5	0	1	315	0.00	29.904 
01:55	49.1	49.1	49.1	80	43.2	0	1	315	0.00	29.904 
02:00	48.8	48.8	48.8	81	43.2	0	1	315	0.00	29.904 
02:05	48.6	48.6	48.6	81	43.0	0	1	315	0.00	29.904 
02:10	48.3	48.3	48.3	81	42.7	0	1	315	0.00	29.904 
02:15	48.2	48.2	48.2	81	42.6	0	1	315	0.00	29.907 
02:20	48.0	48.0	48.0	82	42.8	0	1	315	0.00	29.907 
02:25	47.9	47.9	47.9	82	42.7	0	1	315	0.00	29.907 
02:30	47.7	47.7	47.7	82	42.5	0	1	315	0.00	29.909 
02:35	47.7	47.7	47.7	82	42.5	0	2	315	0.00	29.909 
02:40	47.6	47.6	47.6	82	42.4	0	1	315	0.00	29.909 
02:45	47.4	47.4	47.4	82	42.2	0	1	315	0.00	29.911 
02:50	47.3	47.3	47.3	82	42.1	0	1	315	0.00	29.911 
02:55	47.3	47.3	47.3	82	42.1	0	2	315	0.00	29.911 
03:00	47.3	47.3	47.3	82	42.1	0	1	315	0.00	29.918 
03:05	47.1	47.1	47.1	82	41.9	0	1	315	0.00	29.918 
03:10	47.0	47.0	47.0	82	41.8	0	1	315	0.00	29.918 
03:15	46.8	46.8	46.8	82	41.6	0	1	315	0.00	29.923 
03:20	46.7	46.7	46.7	82	41.5	0	1	315	0.00	29.923 
03:25	46.7	46.7	46.7	82	41.5	0	1	315	0.00	29.923 
03:30	47.0	47.0	47.0	82	41.8	0	2	315	0.00	29.923 
03:35	47.0	47.0	47.0	82	41.8	0	2	315	0.00	29.923 
03:40	47.3	47.3	47.3	82	42.1	0	2	315	0.00	29.923 
03:45	47.4	47.4	47.4	81	41.9	0	2	315	0.00	29.918 
03:50	47.4	47.4	47.4	81	41.9	0	1	315	0.00	29.918 
03:55	47.4	47.4	47.4	81	41.9	0	1	315	0.00	29.918 
04:00	47.4	47.4	47.4	81	41.9	0	0	---	0.00	29.917 
04:05	47.4	47.4	47.4	81	41.9	0	1	315	0.00	29.917 
04:10	47.4	47.4	47.4	81	41.9	0	1	315	0.00	29.917 
04:15	47.3	47.3	47.3	81	41.8	0	1	315	0.00	29.918 
04:20	47.3	47.3	47.3	81	41.8	0	1	315	0.00	29.918 
04:25	47.3	47.3	47.3	81	41.8	0	1	315	0.00	29.918 
04:30	47.3	47.3	47.3	81	41.8	0	1	315	0.00	29.923 
04:35	47.3	47.3	47.3	81	41.8	0	2	315	0.00	29.923 
04:40	47.3	47.3	47.3	81	41.8	0	1	315	0.00	29.923 
04:45	47.3	47.3	47.3	81	41.8	0	1	315	0.00	29.924 
04:50	47.3	47.3	47.3	81	41.8	0	1	315	0.00	29.924 
04:55	47.3	47.3	47.3	82	42.1	0	1	315	0.00	29.924 
05:00	47.3	47.3	47.3	82	42.1	0	1	315	0.00	29.928 
05:05	47.3	47.3	47.3	82	42.1	0	3	315	0.00	29.928 
05:10	47.3	47.3	47.3	82	42.1	0	2	315	0.00	29.928 
05:15	47.3	47.3	47.3	82	42.1	0	1	315	0.00	29.930 
05:20	47.3	47.3	47.3	82	42.1	0	2	315	0.00	29.930 
05:25	47.3	47.3	47.3	82	42.1	0	1	315	0.00	29.930 
05:30	47.3	47.3	47.3	82	42.1	0	1	315	0.00	29.935 
05:35	47.3	47.3	47.3	82	42.1	0	2	315	0.00	29.935 
05:40	47.1	47.1	47.1	82	41.9	0	2	315	0.00	29.935 
05:45	47.1	47.1	47.1	82	41.9	0	3	315	0.00	29.935 
05:50	47.3	47.3	47.3	82	42.1	0	1	315	0.00	29.935 
05:55	47.3	47.3	47.3	82	42.1	0	3	315	0.00	29.935 
06:00	47.1	47.1	47.1	82	41.9	1	4	315	0.00	29.940 
06:05	47.3	47.3	47.3	82	42.1	0	3	315	0.00	29.940 
06:10	47.3	47.3	47.3	82	42.1	0	4	315	0.00	29.940 
06:15	47.3	47.3	47.3	82	42.1	0	3	292	0.00	29.947 
06:20	47.3	47.3	47.3	82	42.1	1	3	292	0.00	29.947 
06:25	47.3	47.3	47.3	82	42.1	0	3	292	0.00	29.947 
06:30	47.3	47.3	47.3	82	42.1	0	2	292	0.00	29.955 
06:35	47.3	47.3	47.3	82	42.1	1	5	338	0.00	29.955 
06:40	47.3	47.3	47.3	82	42.1	0	4	338	0.00	29.955 
06:45	47.3	47.3	47.3	82	42.1	1	3	338	0.00	29.958 
06:50	47.1	47.1	47.1	82	41.9	0	3	338	0.00	29.958 
06:55	47.1	47.1	47.1	82	41.9	0	3	315	0.00	29.958 
07:00	47.1	47.1	47.1	82	41.9	0	3	315	0.00	29.962 
07:05	47.1	47.1	47.1	82	41.9	0	3	315	0.00	29.962 
07:10	47.1	47.1	47.1	83	42.2	1	3	315	0.00	29.962 
07:15	47.1	47.1	47.1	83	42.2	1	4	315	0.00	29.965 
07:20	47.1	47.1	47.1	83	42.2	0	2	315	0.00	29.965 
07:25	47.1	47.1	47.1	83	42.2	1	3	315	0.00	29.965 
07:30	47.1	47.1	47.1	84	42.5	0	3	315	0.00	29.970 
07:35	47.0	47.0	47.0	84	42.4	1	3	315	0.00	29.970 
07:40	47.0	47.0	47.0	84	42.4	1	3	315	0.00	29.970 
07:45	47.0	47.0	47.0	84	42.4	0	2	315	0.00	29.972 
07:50	46.8	46.8	46.8	84	42.2	1	3	315	0.00	29.972 
07:55	47.0	47.0	47.0	84	42.4	0	1	315	0.00	29.972 
08:00	46.8	46.8	46.8	84	42.2	1	3	315	0.00	29.974 
08:05	46.8	46.8	46.8	84	42.2	0	2	315	0.00	29.974 
08:10	46.8	46.8	46.8	85	42.5	0	2	315	0.00	29.974 
08:15	46.8	46.8	46.8	85	42.5	0	1	315	0.00	29.980 
08:20	46.8	46.8	46.8	85	42.5	0	1	315	0.00	29.980 
08:25	46.8	46.8	46.8	85	42.5	0	3	315	0.00	29.980 
08:30	46.8	46.8	46.8	85	42.5	0	3	315	0.00	29.988 
08:35	47.0	47.0	47.0	85	42.7	0	1	315	0.00	29.988 
08:40	47.0	47.0	47.0	85	42.7	0	1	315	0.00	29.988 
08:45	47.0	47.0	47.0	85	42.7	0	1	315	0.00	29.992 
08:50	47.0	47.0	47.0	85	42.7	0	1	315	0.00	29.992 
08:55	47.0	47.0	47.0	85	42.7	0	3	315	0.00	29.992 
09:00	47.0	47.0	47.0	85	42.7	0	2	315	0.00	30.000 
09:05	47.0	47.0	47.0	85	42.7	0	2	315	0.00	30.000 
09:10	47.0	47.0	47.0	85	42.7	1	4	315	0.00	30.000 
09:15	47.0	47.0	47.0	85	42.7	0	2	315	0.00	30.006 
09:20	47.0	47.0	47.0	85	42.7	0	3	315	0.00	30.006 
09:25	47.0	47.0	47.0	84	42.4	1	4	315	0.00	30.006 
09:30	47.0	47.0	47.0	84	42.4	1	4	315	0.00	30.008 
09:35	47.0	47.0	47.0	84	42.4	1	3	315	0.00	30.008 
09:40	47.1	47.1	47.1	84	42.5	0	1	315	0.00	30.008 
09:45	47.1	47.1	47.1	84	42.5	1	3	315	0.00	30.013 
09:50	47.1	47.1	47.1	84	42.5	1	4	315	0.00	30.013 
09:55	47.1	47.1	47.1	83	42.2	0	3	315	0.00	30.013 
10:00	47.3	47.3	47.3	83	42.4	1	4	315	0.00	30.020 
10:05	47.3	47.3	47.3	83	42.4	1	5	315	0.00	30.020 
10:10	47.3	47.3	47.3	83	42.4	1	4	338	0.00	30.020 
10:15	47.3	47.3	47.3	83	42.4	1	4	315	0.00	30.023 
10:20	47.4	47.4	47.4	83	42.5	1	3	315	0.00	30.023 
10:25	47.4	47.4	47.4	83	42.5	1	4	315	0.00	30.023 
10:30	47.4	47.4	47.4	83	42.5	2	6	338	0.00	30.029 
10:35	47.6	47.6	47.6	83	42.7	1	4	315	0.00	30.029 
10:40	47.6	47.6	47.6	83	42.7	1	4	315	0.00	30.029 
10:45	47.7	47.7	47.7	83	42.8	2	6	338	0.00	30.036 
10:50	47.7	47.7	47.7	83	42.8	1	4	338	0.00	30.036 
10:55	47.7	47.7	47.7	83	42.8	1	3	338	0.00	30.036 
11:00	47.9	47.9	47.9	82	42.7	1	4	270	0.00	30.038 
11:05	47.9	47.9	47.9	82	42.7	2	5	338	0.00	30.038 
11:10	48.0	48.0	48.0	82	42.8	2	4	315	0.00	30.038 
11:15	48.2	48.2	48.2	82	43.0	1	6	338	0.00	30.038 
11:20	48.5	48.5	48.5	82	43.3	1	3	338	0.00	30.038 
11:25	48.8	48.8	48.8	82	43.6	1	4	338	0.00	30.038 
11:30	48.9	48.9	48.9	81	43.3	1	5	292	0.00	30.040 
11:35	49.1	49.1	49.1	81	43.5	1	4	315	0.00	30.040 
11:40	49.2	49.2	49.2	80	43.3	1	4	315	0.00	30.040 
11:45	49.4	49.4	49.4	80	43.5	1	5	315	0.00	30.045 
11:50	49.5	49.5	49.5	80	43.6	1	4	338	0.00	30.045 
11:55	49.6	49.6	49.6	79	43.4	1	5	338	0.00	30.045 
12:00	49.6	49.6	49.6	78	43.0	1	5	0	0.00	30.049 
12:05	49.8	49.8	49.8	78	43.2	1	3	338	0.00	30.049 
12:10	49.9	49.9	49.9	79	43.6	0	3	338	0.00	30.049 
12:15	49.9	49.9	49.9	78	43.3	1	4	338	0.00	30.052 
12:20	49.9	49.9	49.9	78	43.3	1	3	338	0.00	30.052 
12:25	50.1	50.1	50.1	78	43.5	0	2	338	0.00	30.052 
12:30	50.1	50.1	50.1	77	43.2	1	5	315	0.00	30.052 
12:35	50.2	50.2	50.2	78	43.6	1	4	315	0.00	30.052 
12:40	50.1	50.1	50.1	77	43.2	2	6	315	0.00	30.052 
12:45	50.2	50.2	50.2	77	43.3	1	3	315	0.00	30.053 
12:50	50.1	50.1	50.1	77	43.2	1	6	338	0.00	30.053 
12:55	50.1	50.1	50.1	77	43.2	1	4	338	0.00	30.053 
13:00	50.2	50.2	50.2	78	43.6	0	3	338	0.00	30.055 
13:05	50.2	50.2	50.2	77	43.3	0	2	0	0.00	30.055 
13:10	50.2	50.2	50.2	77	43.3	1	6	0	0.00	30.055 
13:15	50.1	50.1	50.1	77	43.2	2	5	315	0.00	30.058 
13:20	50.2	50.2	50.2	78	43.6	0	4	135	0.00	30.058 
13:25	50.4	50.4	50.4	77	43.5	1	6	0	0.00	30.058 
13:30	50.4	50.4	50.4	76	43.1	1	3	315	0.00	30.057 
13:35	50.5	50.5	50.5	76	43.2	1	3	45	0.00	30.057 
13:40	50.7	50.7	50.7	75	43.1	0	2	45	0.00	30.057 
13:45	50.5	50.5	50.5	75	42.9	1	3	45	0.00	30.061 
13:50	50.4	50.4	50.4	75	42.8	1	4	315	0.00	30.061 
13:55	50.4	50.4	50.4	74	42.4	1	3	22	0.00	30.061 
14:00	50.2	50.2	50.2	74	42.2	0	4	338	0.00	30.060 
14:05	50.5	50.5	50.5	75	42.9	0	3	338	0.00	30.060 
14:10	50.8	50.8	50.8	74	42.8	0	3	338	0.00	30.060 
14:15	51.0	51.0	51.0	73	42.7	2	5	338	0.00	30.061 
14:20	51.1	51.1	51.1	71	42.0	1	3	90	0.00	30.061 
14:25	51.3	51.3	51.3	72	42.6	0	3	90	0.00	30.061 
14:30	51.3	51.3	51.3	71	42.2	0	2	68	0.00	30.063 
14:35	51.6	51.6	51.6	71	42.5	0	2	68	0.00	30.063 
14:40	51.9	51.9	51.9	71	42.8	0	3	68	0.00	30.063 
14:45	51.7	51.7	51.7	70	42.2	0	4	22	0.00	30.062 
14:50	51.6	51.6	51.6	69	41.8	1	4	68	0.00	30.062 
14:55	51.3	51.3	51.3	69	41.5	1	6	158	0.00	30.062 
15:00	51.0	51.0	51.0	70	41.6	0	3	292	0.00	30.067 
15:05	50.8	50.8	50.8	71	41.7	0	3	270	0.00	30.067 
15:10	50.8	50.8	50.8	71	41.7	1	4	315	0.00	30.067 
15:15	50.7	50.7	50.7	71	41.6	1	4	0	0.00	30.070 
15:20	50.8	50.8	50.8	72	42.1	1	5	338	0.00	30.070 
15:25	50.8	50.8	50.8	72	42.1	0	3	338	0.00	30.070 
15:30	50.8	50.8	50.8	72	42.1	1	3	315	0.00	30.071 
15:35	50.8	50.8	50.8	70	41.4	1	5	338	0.00	30.071 
15:40	50.8	50.8	50.8	71	41.7	1	3	338	0.00	30.071 
15:45	50.8	50.8	50.8	69	41.0	2	6	338	0.00	30.074 
15:50	50.8	50.8	50.8	68	40.6	2	7	338	0.00	30.074 
15:55	51.0	51.0	51.0	68	40.8	1	5	338	0.00	30.074 
16:00	51.0	51.0	51.0	66	40.0	2	6	315	0.00	30.078 
16:05	51.0	51.0	51.0	65	39.7	1	6	292	0.00	30.078 
16:10	50.8	50.8	50.8	66	39.9	1	3	292	0.00	30.078 
16:15	50.8	50.8	50.8	66	39.9	1	5	315	0.00	30.084 
16:20	50.7	50.7	50.7	66	39.8	1	6	315	0.00	30.084 
16:25	50.7	50.7	50.7	69	40.9	0	3	112	0.00	30.084 
16:30	50.5	50.5	50.5	70	41.1	0	3	112	0.00	30.087 
16:35	50.4	50.4	50.4	70	41.0	1	6	90	0.00	30.087 
16:40	50.2	50.2	50.2	70	40.8	1	7	112	0.00	30.087 
16:45	50.1	50.1	50.1	71	41.1	0	1	112	0.00	30.092 
16:50	49.9	49.9	49.9	72	41.2	0	2	112	0.00	30.092 
16:55	49.8	49.8	49.8	70	40.4	1	4	112	0.00	30.092 
17:00	49.8	49.8	49.8	69	40.0	1	3	112	0.00	30.103 
17:05	49.6	49.6	49.6	68	39.5	1	5	338	0.00	30.103 
17:10	49.6	49.6	49.6	68	39.5	1	4	45	0.00	30.103 
17:15	49.6	49.6	49.6	67	39.1	0	2	112	0.00	30.105 
17:20	49.6	49.6	49.6	68	39.5	0	2	112	0.00	30.105 
17:25	49.6	49.6	49.6	67	39.1	0	3	22	0.00	30.105 
17:30	49.5	49.5	49.5	67	39.0	0	2	45	0.00	30.110 
17:35	49.5	49.5	49.5	67	39.0	0	3	68	0.00	30.110 
17:40	49.4	49.4	49.4	67	38.9	1	3	22	0.00	30.110 
17:45	49.4	49.4	49.4	68	39.3	0	4	135	0.00	30.115 
17:50	49.2	49.2	49.2	67	38.7	0	5	68	0.00	30.115 
17:55	49.2	49.2	49.2	66	38.3	0	1	45	0.00	30.115 
18:00	49.1	49.1	49.1	66	38.2	0	3	45	0.00	30.121 
18:05	48.9	48.9	48.9	66	38.0	1	3	45	0.00	30.121 
18:10	48.9	48.9	48.9	66	38.0	1	5	68	0.00	30.121 
18:15	48.8	48.8	48.8	65	37.6	1	3	338	0.00	30.123 
18:20	48.8	48.8	48.8	66	38.0	0	4	338	0.00	30.123 
18:25	48.8	48.8	48.8	66	38.0	0	2	338	0.00	30.123 
18:30	48.6	48.6	48.6	66	37.8	0	4	315	0.00	30.131 
18:35	48.6	48.6	48.6	67	38.1	0	3	315	0.00	30.131 
18:40	48.5	48.5	48.5	66	37.7	0	2	315	0.00	30.131 
18:45	48.5	48.5	48.5	66	37.7	1	3	248	0.00	30.135 
18:50	48.3	48.3	48.3	66	37.5	0	2	248	0.00	30.135 
18:55	48.3	48.3	48.3	66	37.5	0	2	248	0.00	30.135 
19:00	48.2	48.2	48.2	66	37.4	0	2	270	0.00	30.138 
19:05	48.2	48.2	48.2	65	37.0	0	2	270	0.00	30.138 
19:10	48.2	48.2	48.2	65	37.0	0	4	135	0.00	30.138 
19:15	48.2	48.2	48.2	65	37.0	0	2	90	0.00	30.143 
19:20	48.0	48.0	48.0	65	36.8	1	6	292	0.00	30.143 
19:25	48.0	48.0	48.0	65	36.8	2	7	338	0.00	30.143 
19:30	47.9	47.9	47.9	65	36.7	1	5	315	0.00	30.150 
19:35	47.7	47.7	47.7	65	36.5	0	3	315	0.00	30.150 
19:40	47.6	47.6	47.6	65	36.4	1	4	315	0.00	30.150 
19:45	47.6	47.6	47.6	64	36.0	1	4	315	0.00	30.154 
19:50	47.4	47.4	47.4	65	36.2	1	4	315	0.00	30.154 
19:55	47.4	47.4	47.4	64	35.8	1	4	292	0.00	30.154 
20:00	47.4	47.4	47.4	64	35.8	1	4	292	0.00	30.167 
20:05	47.4	47.4	47.4	65	36.2	0	2	292	0.00	30.167 
20:10	47.3	47.3	47.3	65	36.1	0	1	292	0.00	30.167 
20:15	47.3	47.3	47.3	65	36.1	0	1	292	0.00	30.169 
20:20	47.3	47.3	47.3	66	36.5	0	1	292	0.00	30.169 
20:25	47.3	47.3	47.3	65	36.1	0	1	292	0.00	30.169 
20:30	47.1	47.1	47.1	66	36.3	0	2	292	0.00	30.173 
20:35	47.1	47.1	47.1	66	36.3	0	1	292	0.00	30.173 
20:40	47.1	47.1	47.1	65	35.9	0	1	292	0.00	30.173 
20:45	47.1	47.1	47.1	65	35.9	0	1	292	0.00	30.176 
20:50	47.1	47.1	47.1	66	36.3	0	2	292	0.00	30.176 
20:55	47.1	47.1	47.1	66	36.3	0	2	292	0.00	30.176 
21:00	47.1	47.1	47.1	66	36.3	0	2	292	0.00	30.175 
21:05	47.1	47.1	47.1	66	36.3	0	2	292	0.00	30.175 
21:10	47.0	47.0	47.0	67	36.6	0	2	292	0.00	30.175 
21:15	47.0	47.0	47.0	67	36.6	0	1	292	0.00	30.183 
21:20	47.0	47.0	47.0	68	37.0	0	2	292	0.00	30.183 
21:25	46.8	46.8	46.8	69	37.2	0	3	292	0.00	30.183 
21:30	46.8	46.8	46.8	69	37.2	1	4	90	0.00	30.188 
21:35	46.7	46.7	46.7	67	36.3	2	10	90	0.00	30.188 
21:40	46.4	46.4	46.4	65	35.3	2	7	68	0.00	30.188 
21:45	46.1	46.1	46.1	66	35.4	0	2	68	0.00	30.197 
21:50	45.8	45.8	45.8	67	35.5	0	4	68	0.00	30.197 
21:55	45.5	45.5	45.5	68	35.6	0	1	68	0.00	30.197 
22:00	45.2	45.2	45.2	69	35.6	0	2	68	0.00	30.202 
22:05	44.9	44.9	44.9	69	35.4	0	1	68	0.00	30.202 
22:10	44.6	44.6	44.6	69	35.1	0	0	---	0.00	30.202 
22:15	44.5	44.5	44.5	70	35.3	0	0	---	0.00	30.204 
22:20	44.3	44.3	44.3	71	35.5	0	0	---	0.00	30.204 
22:25	44.3	44.3	44.3	71	35.5	0	0	---	0.00	30.204 
22:30	44.3	44.3	44.3	72	35.9	0	0	---	0.00	30.214 
22:35	44.3	44.3	44.3	73	36.2	0	0	---	0.00	30.214 
22:40	44.3	44.3	44.3	73	36.2	0	0	---	0.00	30.214 
22:45	44.2	44.2	44.2	74	36.4	0	0	---	0.00	30.216 
22:50	44.2	44.2	44.2	74	36.4	0	0	---	0.00	30.216 
22:55	44.2	44.2	44.2	74	36.4	0	0	---	0.00	30.216 
23:00	44.2	44.2	44.2	75	36.8	0	0	---	0.00	30.217 
23:05	44.2	44.2	44.2	75	36.8	0	0	---	0.00	30.217 
23:10	44.3	44.3	44.3	74	36.5	0	0	---	0.00	30.217 
23:15	44.3	44.3	44.3	73	36.2	0	0	---	0.00	30.215 
23:20	44.5	44.5	44.5	73	36.4	0	2	68	0.00	30.215 
23:25	44.5	44.5	44.5	73	36.4	0	2	68	0.00	30.215 
23:30	44.6	44.6	44.6	73	36.5	0	1	68	0.00	30.217 
23:35	44.6	44.6	44.6	71	35.8	0	2	68	0.00	30.217 
23:40	44.6	44.6	44.6	71	35.8	0	3	68	0.00	30.217 
23:45	44.6	44.6	44.6	71	35.8	0	2	68	0.00	30.217 
23:50	44.6	44.6	44.6	71	35.8	0	2	68	0.00	30.217 
23:55	44.5	44.5	44.5	71	35.7	0	1	68	0.00	30.217 

CoCoRaHS
IN-AL-39
A2 Web Hosting
Creative Commons License
GoDaddy
search engine by freefind advanced

loaded 2018-11-20 02:54:15 • last modified 2010-11-18 10:43:29
Privacy PolicyDisclaimer
• wx.awcolley.com is powered by PmWiki v.2002016 •
• all content (unless otherwise noted) © 2018 A W Colley